createdAt,value
2018-12-17T00:00:29.390Z,61.88
2018-12-17T00:01:05.970Z,63.17
2018-12-17T00:01:40.512Z,67.10
2018-12-17T00:02:15.470Z,67.55
2018-12-17T00:02:50.230Z,65.20
2018-12-17T00:03:24.938Z,65.03
2018-12-17T00:03:59.591Z,62.23
2018-12-17T00:04:34.691Z,59.95
2018-12-17T00:05:09.413Z,65.20
2018-12-17T00:05:44.171Z,61.45
2018-12-17T00:06:18.850Z,62.88
2018-12-17T00:06:53.491Z,62.05
2018-12-17T00:07:28.130Z,59.08
2018-12-17T00:08:02.650Z,58.98
2018-12-17T00:08:37.350Z,61.50
2018-12-17T00:09:11.990Z,63.08
2018-12-17T00:09:46.771Z,61.88
2018-12-17T00:10:21.411Z,61.80
2018-12-17T00:10:56.051Z,61.63
2018-12-17T00:11:30.651Z,64.65
2018-12-17T00:12:05.470Z,61.05
2018-12-17T00:12:39.930Z,66.17
2018-12-17T00:13:14.579Z,61.60
2018-12-17T00:13:49.110Z,70.00
2018-12-17T00:14:23.710Z,77.95
2018-12-17T00:14:58.331Z,82.15
2018-12-17T00:15:33.092Z,82.00
2018-12-17T00:16:07.910Z,78.78
2018-12-17T00:16:42.610Z,72.55
2018-12-17T00:17:17.153Z,72.20
2018-12-17T00:17:51.870Z,71.57
2018-12-17T00:18:26.491Z,65.25
2018-12-17T00:19:01.201Z,71.90
2018-12-17T00:19:35.871Z,78.00
2018-12-17T00:20:10.992Z,76.47
2018-12-17T00:20:45.731Z,74.47
2018-12-17T00:21:20.534Z,68.90
2018-12-17T00:21:55.331Z,67.95
2018-12-17T00:22:29.851Z,71.30
2018-12-17T00:23:04.492Z,70.92
2018-12-17T00:23:39.131Z,73.10
2018-12-17T00:24:13.911Z,73.90
2018-12-17T00:24:48.470Z,71.50
2018-12-17T00:25:23.271Z,69.90
2018-12-17T00:25:57.911Z,66.85
2018-12-17T00:26:32.531Z,75.37
2018-12-17T00:27:07.171Z,80.07
2018-12-17T00:27:41.791Z,70.37
2018-12-17T00:28:16.391Z,70.20
2018-12-17T00:28:50.991Z,74.82
2018-12-17T00:29:25.579Z,80.20
2018-12-17T00:30:00.271Z,76.40
2018-12-17T00:30:34.891Z,77.35
2018-12-17T00:31:09.591Z,77.70
2018-12-17T00:31:44.119Z,82.50
2018-12-17T00:32:18.712Z,85.05
2018-12-17T00:32:53.219Z,82.25
2018-12-17T00:33:27.691Z,74.90
2018-12-17T00:34:02.292Z,76.87
2018-12-17T00:34:36.971Z,74.27
2018-12-17T00:35:11.571Z,74.97
2018-12-17T00:35:46.123Z,77.15
2018-12-17T00:36:20.831Z,81.12
2018-12-17T00:36:55.499Z,80.53
2018-12-17T00:37:30.111Z,79.27
2018-12-17T00:38:04.634Z,83.17
2018-12-17T00:38:39.231Z,82.92
2018-12-17T00:39:13.832Z,84.65
2018-12-17T00:39:48.631Z,80.95
2018-12-17T00:40:22.892Z,85.45
2018-12-17T00:40:57.551Z,83.65
2018-12-17T00:41:32.211Z,78.35
2018-12-17T00:42:06.760Z,83.05
2018-12-17T00:42:41.451Z,80.30
2018-12-17T00:43:15.992Z,83.50
2018-12-17T00:43:50.791Z,80.83
2018-12-17T00:44:25.439Z,79.25
2018-12-17T00:45:00.031Z,81.35
2018-12-17T00:45:41.112Z,81.95
2018-12-17T00:46:15.751Z,81.05
2018-12-17T00:46:50.433Z,79.77
2018-12-17T00:47:25.051Z,75.92
2018-12-17T00:47:59.832Z,78.50
2018-12-17T00:48:34.433Z,78.60
2018-12-17T00:49:09.111Z,76.10
2018-12-17T00:49:43.711Z,77.35
2018-12-17T00:50:18.412Z,72.00
2018-12-17T00:50:53.031Z,65.72
2018-12-17T00:51:27.771Z,70.62
2018-12-17T00:52:02.559Z,76.45
2018-12-17T00:52:37.252Z,84.80
2018-12-17T00:53:11.871Z,84.92
2018-12-17T00:53:46.432Z,80.50
2018-12-17T00:54:21.031Z,80.77
2018-12-17T00:54:55.632Z,83.15
2018-12-17T00:55:30.412Z,81.20
2018-12-17T00:56:05.111Z,84.80
2018-12-17T00:56:39.760Z,81.70
2018-12-17T00:57:14.571Z,79.37
2018-12-17T00:57:49.293Z,79.17
2018-12-17T00:58:23.891Z,81.22
2018-12-17T00:58:58.491Z,84.00
2018-12-17T00:59:33.052Z,83.82
2018-12-17T01:00:09.972Z,84.95
2018-12-17T01:00:44.551Z,78.33
2018-12-17T01:01:19.212Z,78.40
2018-12-17T01:01:53.832Z,76.90
2018-12-17T01:02:28.571Z,76.40
2018-12-17T01:03:03.211Z,76.85
2018-12-17T01:03:37.771Z,80.15
2018-12-17T01:04:12.572Z,79.67
2018-12-17T01:04:47.279Z,78.72
2018-12-17T01:05:21.943Z,78.45
2018-12-17T01:05:56.600Z,79.25
2018-12-17T01:06:31.212Z,82.30
2018-12-17T01:07:05.771Z,84.77
2018-12-17T01:07:40.511Z,84.87
2018-12-17T01:08:15.051Z,90.87
2018-12-17T01:08:49.739Z,106.05
2018-12-17T01:09:24.292Z,109.65
2018-12-17T01:09:58.931Z,115.35
2018-12-17T01:10:33.732Z,117.70
2018-12-17T01:11:08.293Z,114.70
2018-12-17T01:11:42.931Z,114.95
2018-12-17T01:12:17.552Z,114.60
2018-12-17T01:12:58.379Z,115.32
2018-12-17T01:13:33.032Z,105.60
2018-12-17T01:14:07.631Z,108.00
2018-12-17T01:14:42.233Z,106.97
2018-12-17T01:15:16.772Z,107.17
2018-12-17T01:15:51.392Z,104.60
2018-12-17T01:16:26.578Z,108.83
2018-12-17T01:17:01.391Z,101.65
2018-12-17T01:17:36.051Z,103.17
2018-12-17T01:18:10.819Z,105.15
2018-12-17T01:18:45.412Z,109.00
2018-12-17T01:19:19.951Z,109.15
2018-12-17T01:19:54.551Z,105.87
2018-12-17T01:20:29.051Z,103.25
2018-12-17T01:21:03.691Z,107.22
2018-12-17T01:21:38.451Z,106.25
2018-12-17T01:22:12.971Z,105.87
2018-12-17T01:22:47.692Z,104.03
2018-12-17T01:23:22.291Z,103.70
2018-12-17T01:23:57.011Z,115.45
2018-12-17T01:24:31.579Z,107.05
2018-12-17T01:25:06.435Z,114.92
2018-12-17T01:25:40.911Z,118.42
2018-12-17T01:26:15.699Z,115.17
2018-12-17T01:26:50.211Z,125.35
2018-12-17T01:27:24.811Z,123.82
2018-12-17T01:27:59.399Z,125.53
2018-12-17T01:28:34.360Z,125.45
2018-12-17T01:29:09.051Z,122.80
2018-12-17T01:29:43.691Z,121.40
2018-12-17T01:30:18.374Z,123.78
2018-12-17T01:30:53.113Z,124.53
2018-12-17T01:31:27.691Z,113.35
2018-12-17T01:32:02.232Z,114.72
2018-12-17T01:32:36.971Z,115.15
2018-12-17T01:33:11.495Z,114.88
2018-12-17T01:33:46.091Z,118.85
2018-12-17T01:34:20.691Z,127.17
2018-12-17T01:34:55.311Z,122.00
2018-12-17T01:35:30.013Z,125.60
2018-12-17T01:36:04.771Z,124.78
2018-12-17T01:36:39.333Z,124.97
2018-12-17T01:37:14.051Z,121.60
2018-12-17T01:37:48.711Z,122.80
2018-12-17T01:38:23.291Z,120.70
2018-12-17T01:38:57.991Z,117.30
2018-12-17T01:39:32.612Z,119.13
2018-12-17T01:40:07.512Z,119.82
2018-12-17T01:40:42.094Z,117.28
2018-12-17T01:41:16.991Z,117.65
2018-12-17T01:41:51.531Z,115.15
2018-12-17T01:42:26.131Z,117.13
2018-12-17T01:43:00.711Z,116.28
2018-12-17T01:43:35.314Z,117.97
2018-12-17T01:44:09.951Z,120.92
2018-12-17T01:44:44.511Z,117.70
2018-12-17T01:45:19.171Z,123.20
2018-12-17T01:45:53.771Z,121.07
2018-12-17T01:46:28.431Z,120.77
2018-12-17T01:47:03.191Z,119.72
2018-12-17T01:47:37.719Z,116.00
2018-12-17T01:48:12.412Z,126.62
2018-12-17T01:48:47.092Z,122.28
2018-12-17T01:49:21.891Z,123.95
2018-12-17T01:49:56.512Z,121.92
2018-12-17T01:50:31.113Z,119.35
2018-12-17T01:51:05.651Z,118.30
2018-12-17T01:51:40.294Z,124.45
2018-12-17T01:52:14.931Z,122.85
2018-12-17T01:52:49.571Z,129.60
2018-12-17T01:53:24.131Z,124.58
2018-12-17T01:53:58.838Z,118.62
2018-12-17T01:54:33.771Z,122.30
2018-12-17T01:55:08.371Z,127.05
2018-12-17T01:55:42.993Z,120.20
2018-12-17T01:56:17.571Z,120.82
2018-12-17T01:56:52.151Z,120.95
2018-12-17T01:57:26.911Z,112.40
2018-12-17T01:58:01.751Z,115.32
2018-12-17T01:58:36.391Z,118.22
2018-12-17T01:59:11.031Z,112.55
2018-12-17T01:59:45.837Z,115.03
2018-12-17T02:00:20.795Z,118.50
2018-12-17T02:00:55.359Z,116.53
2018-12-17T02:01:29.951Z,112.62
2018-12-17T02:02:04.551Z,120.15
2018-12-17T02:02:39.130Z,120.82
2018-12-17T02:03:15.951Z,113.65
2018-12-17T02:03:50.591Z,113.40
2018-12-17T02:04:25.351Z,109.40
2018-12-17T02:04:59.951Z,117.53
2018-12-17T02:05:34.571Z,105.43
2018-12-17T02:06:09.291Z,116.42
2018-12-17T02:06:43.871Z,113.95
2018-12-17T02:07:18.451Z,111.92
2018-12-17T02:07:52.971Z,109.67
2018-12-17T02:08:28.111Z,107.92
2018-12-17T02:09:02.919Z,111.32
2018-12-17T02:09:37.471Z,111.85
2018-12-17T02:10:12.352Z,109.37
2018-12-17T02:10:47.091Z,111.35
2018-12-17T02:11:21.931Z,109.85
2018-12-17T02:11:56.691Z,108.70
2018-12-17T02:12:31.351Z,108.12
2018-12-17T02:13:06.012Z,108.57
2018-12-17T02:13:40.971Z,107.55
2018-12-17T02:14:15.571Z,110.75
2018-12-17T02:14:50.072Z,103.55
2018-12-17T02:15:24.871Z,104.45
2018-12-17T02:15:59.492Z,103.70
2018-12-17T02:16:34.140Z,98.80
2018-12-17T02:17:08.899Z,103.65
2018-12-17T02:17:43.651Z,105.58
2018-12-17T02:18:18.192Z,105.50
2018-12-17T02:18:52.990Z,102.95
2018-12-17T02:19:27.560Z,101.18
2018-12-17T02:20:02.610Z,100.50
2018-12-17T02:20:37.219Z,100.87
2018-12-17T02:21:11.831Z,100.50
2018-12-17T02:21:46.491Z,101.07
2018-12-17T02:22:21.291Z,97.62
2018-12-17T02:22:55.971Z,97.40
2018-12-17T02:23:30.551Z,101.50
2018-12-17T02:24:05.151Z,98.40
2018-12-17T02:24:39.751Z,97.53
2018-12-17T02:25:14.531Z,95.92
2018-12-17T02:25:49.192Z,95.32
2018-12-17T02:26:23.731Z,96.57
2018-12-17T02:26:58.471Z,95.50
2018-12-17T02:27:33.013Z,95.15
2018-12-17T02:28:07.692Z,96.82
2018-12-17T02:28:42.431Z,95.03
2018-12-17T02:29:17.052Z,92.15
2018-12-17T02:29:51.811Z,97.97
2018-12-17T02:30:26.461Z,95.35
2018-12-17T02:31:07.471Z,93.80
2018-12-17T02:31:42.013Z,94.28
2018-12-17T02:32:16.611Z,91.97
2018-12-17T02:32:51.242Z,92.02
2018-12-17T02:33:25.931Z,93.67
2018-12-17T02:34:00.594Z,95.50
2018-12-17T02:34:35.261Z,100.90
2018-12-17T02:35:09.851Z,102.25
2018-12-17T02:35:44.391Z,100.35
2018-12-17T02:36:19.299Z,97.00
2018-12-17T02:36:53.831Z,102.72
2018-12-17T02:37:28.410Z,100.27
2018-12-17T02:38:03.051Z,101.85
2018-12-17T02:38:37.651Z,104.17
2018-12-17T02:39:12.170Z,101.12
2018-12-17T02:39:46.671Z,102.95
2018-12-17T02:40:21.311Z,102.67
2018-12-17T02:40:55.911Z,102.80
2018-12-17T02:41:30.751Z,109.22
2018-12-17T02:42:05.412Z,109.85
2018-12-17T02:42:40.051Z,108.87
2018-12-17T02:43:14.991Z,104.25
2018-12-17T02:43:49.790Z,97.35
2018-12-17T02:44:24.531Z,96.37
2018-12-17T02:44:59.031Z,102.15
2018-12-17T02:45:33.612Z,109.05
2018-12-17T02:46:08.311Z,105.03
2018-12-17T02:46:43.112Z,109.22
2018-12-17T02:47:17.620Z,111.05
2018-12-17T02:47:52.212Z,105.37
2018-12-17T02:48:26.911Z,111.03
2018-12-17T02:49:01.570Z,102.15
2018-12-17T02:49:36.171Z,105.20
2018-12-17T02:50:10.810Z,103.12
2018-12-17T02:50:45.571Z,102.15
2018-12-17T02:51:20.196Z,101.30
2018-12-17T02:51:54.836Z,99.95
2018-12-17T02:52:29.330Z,97.10
2018-12-17T02:53:04.026Z,98.17
2018-12-17T02:53:38.750Z,97.78
2018-12-17T02:54:13.291Z,96.87
2018-12-17T02:54:47.832Z,102.85
2018-12-17T02:55:22.458Z,102.40
2018-12-17T02:55:56.950Z,98.07
2018-12-17T02:56:31.558Z,100.85
2018-12-17T02:57:06.232Z,97.42
2018-12-17T02:57:40.815Z,97.15
2018-12-17T02:58:15.492Z,97.40
2018-12-17T02:58:50.130Z,96.35
2018-12-17T02:59:24.810Z,89.35
2018-12-17T02:59:59.570Z,93.20
2018-12-17T03:00:34.796Z,98.00
2018-12-17T03:01:09.432Z,94.67
2018-12-17T03:01:44.039Z,95.40
2018-12-17T03:02:18.671Z,93.52
2018-12-17T03:02:53.151Z,93.40
2018-12-17T03:03:27.711Z,94.13
2018-12-17T03:04:02.270Z,92.70
2018-12-17T03:04:36.870Z,92.02
2018-12-17T03:05:11.530Z,89.35
2018-12-17T03:05:46.150Z,90.15
2018-12-17T03:06:20.690Z,86.15
2018-12-17T03:06:55.410Z,87.27
2018-12-17T03:07:30.130Z,88.33
2018-12-17T03:08:04.730Z,81.95
2018-12-17T03:08:39.330Z,82.95
2018-12-17T03:09:13.951Z,81.50
2018-12-17T03:09:48.590Z,79.77
2018-12-17T03:10:23.311Z,81.85
2018-12-17T03:10:57.898Z,85.85
2018-12-17T03:11:32.631Z,81.20
2018-12-17T03:12:07.311Z,80.12
2018-12-17T03:12:42.054Z,79.67
2018-12-17T03:13:16.670Z,83.33
2018-12-17T03:13:51.270Z,79.35
2018-12-17T03:14:25.793Z,80.47
2018-12-17T03:15:00.373Z,81.70
2018-12-17T03:15:34.953Z,82.37
2018-12-17T03:16:09.571Z,82.10
2018-12-17T03:16:44.131Z,78.65
2018-12-17T03:17:18.838Z,78.28
2018-12-17T03:17:53.470Z,78.25
2018-12-17T03:18:28.073Z,81.30
2018-12-17T03:19:02.610Z,79.70
2018-12-17T03:19:37.371Z,75.08
2018-12-17T03:20:12.012Z,76.55
2018-12-17T03:20:46.685Z,74.95
2018-12-17T03:21:21.359Z,71.37
2018-12-17T03:21:55.972Z,78.22
2018-12-17T03:22:30.511Z,74.47
2018-12-17T03:23:05.170Z,79.53
2018-12-17T03:23:39.710Z,80.53
2018-12-17T03:24:14.472Z,76.92
2018-12-17T03:24:49.030Z,77.75
2018-12-17T03:25:23.758Z,79.55
2018-12-17T03:25:58.498Z,76.10
2018-12-17T03:26:33.111Z,77.45
2018-12-17T03:27:07.590Z,78.37
2018-12-17T03:27:42.196Z,77.40
2018-12-17T03:28:16.872Z,76.12
2018-12-17T03:28:52.097Z,75.03
2018-12-17T03:29:26.811Z,77.08
2018-12-17T03:30:01.391Z,77.87
2018-12-17T03:30:36.112Z,74.60
2018-12-17T03:31:10.672Z,74.10
2018-12-17T03:31:45.492Z,79.00
2018-12-17T03:32:20.212Z,80.83
2018-12-17T03:32:54.903Z,83.47
2018-12-17T03:33:29.612Z,78.83
2018-12-17T03:34:04.212Z,80.77
2018-12-17T03:34:38.691Z,85.12
2018-12-17T03:35:13.390Z,82.62
2018-12-17T03:35:48.011Z,79.35
2018-12-17T03:36:22.691Z,82.53
2018-12-17T03:36:57.211Z,80.80
2018-12-17T03:37:31.831Z,81.80
2018-12-17T03:38:06.439Z,84.80
2018-12-17T03:38:41.114Z,86.60
2018-12-17T03:39:15.792Z,87.35
2018-12-17T03:39:50.510Z,85.22
2018-12-17T03:40:25.150Z,87.62
2018-12-17T03:40:59.772Z,88.50
2018-12-17T03:41:34.211Z,83.03
2018-12-17T03:42:09.111Z,85.85
2018-12-17T03:42:43.751Z,84.30
2018-12-17T03:43:18.377Z,86.02
2018-12-17T03:43:52.971Z,87.17
2018-12-17T03:44:27.551Z,84.62
2018-12-17T03:45:02.250Z,88.03
2018-12-17T03:45:36.859Z,89.72
2018-12-17T03:46:11.331Z,85.05
2018-12-17T03:46:46.078Z,83.90
2018-12-17T03:47:20.631Z,84.50
2018-12-17T03:47:55.211Z,85.83
2018-12-17T03:48:29.752Z,86.95
2018-12-17T03:49:04.417Z,83.65
2018-12-17T03:49:38.971Z,82.35
2018-12-17T03:50:13.551Z,79.47
2018-12-17T03:50:48.072Z,87.22
2018-12-17T03:51:22.631Z,86.15
2018-12-17T03:51:57.232Z,86.55
2018-12-17T03:52:31.751Z,87.20
2018-12-17T03:53:06.377Z,93.12
2018-12-17T03:53:40.951Z,92.47
2018-12-17T03:54:15.871Z,93.07
2018-12-17T03:54:50.472Z,86.50
2018-12-17T03:55:25.114Z,84.05
2018-12-17T03:55:59.751Z,101.95
2018-12-17T03:56:34.351Z,116.15
2018-12-17T03:57:08.967Z,119.77
2018-12-17T03:57:43.666Z,93.70
2018-12-17T03:58:18.214Z,105.50
2018-12-17T03:58:59.049Z,141.37
2018-12-17T03:59:29.555Z,116.30
2018-12-17T04:00:04.806Z,100.60
2018-12-17T04:00:39.467Z,96.65
2018-12-17T04:01:14.214Z,142.37
2018-12-17T04:01:48.646Z,112.08
2018-12-17T04:02:23.247Z,120.25
2018-12-17T04:02:57.907Z,176.47
2018-12-17T04:03:32.526Z,182.97
2018-12-17T04:04:07.086Z,173.57
2018-12-17T04:04:41.767Z,166.60
2018-12-17T04:05:16.406Z,182.60
2018-12-17T04:05:50.967Z,169.22
2018-12-17T04:06:25.593Z,160.70
2018-12-17T04:07:00.146Z,138.77
2018-12-17T04:07:34.766Z,139.20
2018-12-17T04:08:09.366Z,129.95
2018-12-17T04:08:43.846Z,122.22
2018-12-17T04:09:18.506Z,135.43
2018-12-17T04:09:53.306Z,133.45
2018-12-17T04:10:27.946Z,127.15
2018-12-17T04:11:02.546Z,123.60
2018-12-17T04:11:37.246Z,125.30
2018-12-17T04:12:11.765Z,128.05
2018-12-17T04:12:46.712Z,127.15
2018-12-17T04:13:21.468Z,116.25
2018-12-17T04:13:56.189Z,122.65
2018-12-17T04:14:30.888Z,126.12
2018-12-17T04:15:05.625Z,120.92
2018-12-17T04:15:40.452Z,124.15
2018-12-17T04:16:15.027Z,113.00
2018-12-17T04:16:49.635Z,109.90
2018-12-17T04:17:24.224Z,111.70
2018-12-17T04:17:59.023Z,97.17
2018-12-17T04:18:33.903Z,102.00
2018-12-17T04:19:08.423Z,93.82
2018-12-17T04:19:43.063Z,84.87
2018-12-17T04:20:17.844Z,88.27
2018-12-17T04:20:52.343Z,85.47
2018-12-17T04:21:27.004Z,85.22
2018-12-17T04:22:01.663Z,85.83
2018-12-17T04:22:36.212Z,84.03
2018-12-17T04:23:10.844Z,82.55
2018-12-17T04:23:45.444Z,82.53
2018-12-17T04:24:20.005Z,86.47
2018-12-17T04:24:54.693Z,83.12
2018-12-17T04:25:29.365Z,84.15
2018-12-17T04:26:04.084Z,80.97
2018-12-17T04:26:38.631Z,81.95
2018-12-17T04:27:13.144Z,83.65
2018-12-17T04:27:47.624Z,83.50
2018-12-17T04:28:22.406Z,81.02
2018-12-17T04:28:56.991Z,83.25
2018-12-17T04:29:31.605Z,81.02
2018-12-17T04:30:06.631Z,80.07
2018-12-17T04:30:41.303Z,83.35
2018-12-17T04:31:15.845Z,78.97
2018-12-17T04:31:50.447Z,79.85
2018-12-17T04:32:24.963Z,78.37
2018-12-17T04:32:59.584Z,78.40
2018-12-17T04:33:34.304Z,74.30
2018-12-17T04:34:08.945Z,78.40
2018-12-17T04:34:43.543Z,78.33
2018-12-17T04:35:18.164Z,77.15
2018-12-17T04:35:53.044Z,77.17
2018-12-17T04:36:27.604Z,76.10
2018-12-17T04:37:02.252Z,70.47
2018-12-17T04:37:37.084Z,74.00
2018-12-17T04:38:11.943Z,74.90
2018-12-17T04:38:46.724Z,74.40
2018-12-17T04:39:21.327Z,74.72
2018-12-17T04:39:55.946Z,76.82
2018-12-17T04:40:30.568Z,75.45
2018-12-17T04:41:05.151Z,73.20
2018-12-17T04:41:39.766Z,77.55
2018-12-17T04:42:14.452Z,77.65
2018-12-17T04:42:49.204Z,72.97
2018-12-17T04:43:23.691Z,76.10
2018-12-17T04:43:58.405Z,78.78
2018-12-17T04:44:33.044Z,73.78
2018-12-17T04:45:08.187Z,75.35
2018-12-17T04:45:42.843Z,74.37
2018-12-17T04:46:17.563Z,75.10
2018-12-17T04:46:52.310Z,74.32
2018-12-17T04:47:27.055Z,73.15
2018-12-17T04:48:01.744Z,74.40
2018-12-17T04:48:36.283Z,71.07
2018-12-17T04:49:11.025Z,76.97
2018-12-17T04:49:45.724Z,72.72
2018-12-17T04:50:20.506Z,74.85
2018-12-17T04:50:55.045Z,72.53
2018-12-17T04:51:30.026Z,73.22
2018-12-17T04:52:04.564Z,77.42
2018-12-17T04:52:39.164Z,75.78
2018-12-17T04:53:13.863Z,72.00
2018-12-17T04:53:48.352Z,74.70
2018-12-17T04:54:22.844Z,66.97
2018-12-17T04:54:57.432Z,71.45
2018-12-17T04:55:32.224Z,70.12
2018-12-17T04:56:06.846Z,73.55
2018-12-17T04:56:41.513Z,73.80
2018-12-17T04:57:16.084Z,73.25
2018-12-17T04:57:50.884Z,72.22
2018-12-17T04:58:25.443Z,71.77
2018-12-17T04:58:59.945Z,70.70
2018-12-17T04:59:34.444Z,69.22
2018-12-17T05:00:10.224Z,69.25
2018-12-17T05:00:45.004Z,70.12
2018-12-17T05:01:19.624Z,70.37
2018-12-17T05:01:54.344Z,70.78
2018-12-17T05:02:29.044Z,69.70
2018-12-17T05:03:03.585Z,71.35
2018-12-17T05:03:38.163Z,72.17
2018-12-17T05:04:12.804Z,72.17
2018-12-17T05:04:47.424Z,70.97
2018-12-17T05:05:22.044Z,72.17
2018-12-17T05:05:56.684Z,71.17
2018-12-17T05:06:31.272Z,77.95
2018-12-17T05:07:05.926Z,81.87
2018-12-17T05:07:40.504Z,78.02
2018-12-17T05:08:15.210Z,76.72
2018-12-17T05:08:49.823Z,73.60
2018-12-17T05:09:24.608Z,73.97
2018-12-17T05:09:59.185Z,76.87
2018-12-17T05:10:34.323Z,76.00
2018-12-17T05:11:08.943Z,73.57
2018-12-17T05:11:43.684Z,75.28
2018-12-17T05:12:18.385Z,75.08
2018-12-17T05:12:53.025Z,73.92
2018-12-17T05:13:27.607Z,75.55
2018-12-17T05:14:02.383Z,77.37
2018-12-17T05:14:37.004Z,76.72
2018-12-17T05:15:11.648Z,75.67
2018-12-17T05:15:46.351Z,76.72
2018-12-17T05:16:20.952Z,79.15
2018-12-17T05:16:55.504Z,78.50
2018-12-17T05:17:30.386Z,78.75
2018-12-17T05:18:04.964Z,77.05
2018-12-17T05:18:39.624Z,79.90
2018-12-17T05:19:14.284Z,80.67
2018-12-17T05:19:48.924Z,78.12
2018-12-17T05:20:23.583Z,78.35
2018-12-17T05:20:58.345Z,77.25
2018-12-17T05:21:33.083Z,78.52
2018-12-17T05:22:07.704Z,79.72
2018-12-17T05:22:42.403Z,75.78
2018-12-17T05:23:17.065Z,77.58
2018-12-17T05:23:51.824Z,78.90
2018-12-17T05:24:26.414Z,77.58
2018-12-17T05:25:01.164Z,74.97
2018-12-17T05:25:35.743Z,75.57
2018-12-17T05:26:10.208Z,75.12
2018-12-17T05:26:44.944Z,75.83
2018-12-17T05:27:19.607Z,76.00
2018-12-17T05:27:54.266Z,74.60
2018-12-17T05:28:29.004Z,73.85
2018-12-17T05:29:03.610Z,74.92
2018-12-17T05:29:38.123Z,75.72
2018-12-17T05:30:12.903Z,72.05
2018-12-17T05:30:47.664Z,78.60
2018-12-17T05:31:22.363Z,78.95
2018-12-17T05:31:57.013Z,76.80
2018-12-17T05:32:31.552Z,77.53
2018-12-17T05:33:06.443Z,76.42
2018-12-17T05:33:41.124Z,71.87
2018-12-17T05:34:15.706Z,75.55
2018-12-17T05:34:50.386Z,75.75
2018-12-17T05:35:25.165Z,77.05
2018-12-17T05:35:59.963Z,80.42
2018-12-17T05:36:34.610Z,77.78
2018-12-17T05:37:09.408Z,77.08
2018-12-17T05:37:44.066Z,75.62
2018-12-17T05:38:19.154Z,77.50
2018-12-17T05:38:53.878Z,76.92
2018-12-17T05:39:28.451Z,75.42
2018-12-17T05:40:03.053Z,81.00
2018-12-17T05:40:37.792Z,78.20
2018-12-17T05:41:12.293Z,77.58
2018-12-17T05:41:46.951Z,80.12
2018-12-17T05:42:21.535Z,82.45
2018-12-17T05:42:56.132Z,81.90
2018-12-17T05:43:30.751Z,81.87
2018-12-17T05:44:05.391Z,82.60
2018-12-17T05:44:40.051Z,76.55
2018-12-17T05:45:14.698Z,77.72
2018-12-17T05:45:49.271Z,77.15
2018-12-17T05:46:23.770Z,77.78
2018-12-17T05:46:58.470Z,75.30
2018-12-17T05:47:33.111Z,78.15
2018-12-17T05:48:07.691Z,78.25
2018-12-17T05:48:42.279Z,74.85
2018-12-17T05:49:17.210Z,76.90
2018-12-17T05:49:51.971Z,74.85
2018-12-17T05:50:26.651Z,76.67
2018-12-17T05:51:01.251Z,78.95
2018-12-17T05:51:35.930Z,77.58
2018-12-17T05:52:10.687Z,78.85
2018-12-17T05:52:45.467Z,78.15
2018-12-17T05:53:20.147Z,79.22
2018-12-17T05:53:54.828Z,77.78
2018-12-17T05:54:29.447Z,76.55
2018-12-17T05:55:04.237Z,75.78
2018-12-17T05:55:38.776Z,77.20
2018-12-17T05:56:13.427Z,73.22
2018-12-17T05:56:48.067Z,77.03
2018-12-17T05:57:22.807Z,74.90
2018-12-17T05:57:57.535Z,73.25
2018-12-17T05:58:32.187Z,71.15
2018-12-17T05:59:06.926Z,73.30
2018-12-17T05:59:41.546Z,76.92
2018-12-17T06:05:26.606Z,62.40
2018-12-17T06:06:00.966Z,70.32
2018-12-17T06:06:35.526Z,73.37
2018-12-17T06:07:10.126Z,74.00
2018-12-17T06:07:44.727Z,73.25
2018-12-17T06:08:19.287Z,74.65
2018-12-17T06:08:54.066Z,74.72
2018-12-17T06:09:28.686Z,73.87
2018-12-17T06:10:03.286Z,73.78
2018-12-17T06:10:37.926Z,77.20
2018-12-17T06:11:12.685Z,73.40
2018-12-17T06:11:47.265Z,76.33
2018-12-17T06:12:21.865Z,77.80
2018-12-17T06:12:56.466Z,71.65
2018-12-17T06:13:31.145Z,75.80
2018-12-17T06:14:05.705Z,75.85
2018-12-17T06:14:40.466Z,73.62
2018-12-17T06:15:15.025Z,75.87
2018-12-17T06:15:49.867Z,75.15
2018-12-17T06:16:24.545Z,76.82
2018-12-17T06:16:59.165Z,75.90
2018-12-17T06:17:33.766Z,76.82
2018-12-17T06:18:08.346Z,75.78
2018-12-17T06:18:43.046Z,77.75
2018-12-17T06:19:17.685Z,75.65
2018-12-17T06:19:52.206Z,74.62
2018-12-17T06:20:26.758Z,73.57
2018-12-17T06:21:01.670Z,76.72
2018-12-17T06:21:36.385Z,76.12
2018-12-17T06:22:11.065Z,76.55
2018-12-17T06:22:45.986Z,76.47
2018-12-17T06:23:20.626Z,75.47
2018-12-17T06:23:55.225Z,74.82
2018-12-17T06:24:30.207Z,75.62
2018-12-17T06:25:04.807Z,79.05
2018-12-17T06:25:39.354Z,75.57
2018-12-17T06:26:14.148Z,75.80
2018-12-17T06:26:48.806Z,79.27
2018-12-17T06:27:23.394Z,78.37
2018-12-17T06:27:58.045Z,76.10
2018-12-17T06:28:32.866Z,81.32
2018-12-17T06:29:07.609Z,81.40
2018-12-17T06:29:42.253Z,75.35
2018-12-17T06:30:16.785Z,77.47
2018-12-17T06:30:51.466Z,74.80
2018-12-17T06:31:26.009Z,75.08
2018-12-17T06:32:00.618Z,74.72
2018-12-17T06:32:35.186Z,74.35
2018-12-17T06:33:15.521Z,73.90
2018-12-17T06:33:46.425Z,77.30
2018-12-17T06:34:21.016Z,75.85
2018-12-17T06:34:55.726Z,77.45
2018-12-17T06:35:30.488Z,78.17
2018-12-17T06:36:05.099Z,73.33
2018-12-17T06:36:39.805Z,78.12
2018-12-17T06:37:14.346Z,76.87
2018-12-17T06:37:49.094Z,75.35
2018-12-17T06:38:23.685Z,74.80
2018-12-17T06:38:58.345Z,79.35
2018-12-17T06:39:33.365Z,76.85
2018-12-17T06:40:10.388Z,80.15
2018-12-17T06:40:45.130Z,74.70
2018-12-17T06:41:19.914Z,75.20
2018-12-17T06:41:54.553Z,84.13
2018-12-17T06:42:29.233Z,79.72
2018-12-17T06:43:03.774Z,79.17
2018-12-17T06:43:38.354Z,71.80
2018-12-17T06:44:13.013Z,76.87
2018-12-17T06:44:47.735Z,76.53
2018-12-17T06:45:22.335Z,77.37
2018-12-17T06:45:57.056Z,78.75
2018-12-17T06:46:31.647Z,76.10
2018-12-17T06:47:06.447Z,77.67
2018-12-17T06:47:41.227Z,78.78
2018-12-17T06:48:17.249Z,74.53
2018-12-17T06:48:52.067Z,74.47
2018-12-17T06:49:26.676Z,75.15
2018-12-17T06:50:01.368Z,75.55
2018-12-17T06:50:35.988Z,74.75
2018-12-17T06:51:10.999Z,73.15
2018-12-17T06:51:45.791Z,74.87
2018-12-17T06:52:20.571Z,75.22
2018-12-17T06:52:55.151Z,77.87
2018-12-17T06:53:29.611Z,74.27
2018-12-17T06:54:04.212Z,75.72
2018-12-17T06:54:38.831Z,75.65
2018-12-17T06:55:13.474Z,76.87
2018-12-17T06:55:48.154Z,74.15
2018-12-17T06:56:22.774Z,75.60
2018-12-17T06:56:57.533Z,79.80
2018-12-17T06:57:32.277Z,78.02
2018-12-17T06:58:06.872Z,80.15
2018-12-17T06:58:41.672Z,77.00
2018-12-17T06:59:16.244Z,81.70
2018-12-17T06:59:51.025Z,84.87
2018-12-17T07:00:25.743Z,77.72
2018-12-17T07:01:00.344Z,82.05
2018-12-17T07:01:34.906Z,80.72
2018-12-17T07:02:09.723Z,78.12
2018-12-17T07:02:44.419Z,83.50
2018-12-17T07:03:19.123Z,77.92
2018-12-17T07:03:53.704Z,77.95
2018-12-17T07:04:28.408Z,76.00
2018-12-17T07:05:03.144Z,71.02
2018-12-17T07:05:37.866Z,72.85
2018-12-17T07:06:12.344Z,77.55
2018-12-17T07:06:47.203Z,75.45
2018-12-17T07:07:21.764Z,76.40
2018-12-17T07:07:56.483Z,74.70
2018-12-17T07:08:31.083Z,73.60
2018-12-17T07:09:07.263Z,77.85
2018-12-17T07:09:41.884Z,80.55
2018-12-17T07:10:16.484Z,78.10
2018-12-17T07:10:51.043Z,76.37
2018-12-17T07:11:25.806Z,72.20
2018-12-17T07:12:00.452Z,72.97
2018-12-17T07:12:35.010Z,74.58
2018-12-17T07:13:09.669Z,74.90
2018-12-17T07:13:44.250Z,71.42
2018-12-17T07:14:18.790Z,74.70
2018-12-17T07:14:53.409Z,78.02
2018-12-17T07:15:28.010Z,76.02
2018-12-17T07:16:02.612Z,73.67
2018-12-17T07:16:37.130Z,73.00
2018-12-17T07:17:11.757Z,76.42
2018-12-17T07:17:46.486Z,72.03
2018-12-17T07:18:21.154Z,74.90
2018-12-17T07:18:55.972Z,77.72
2018-12-17T07:19:30.630Z,73.20
2018-12-17T07:20:05.546Z,74.10
2018-12-17T07:20:40.130Z,77.62
2018-12-17T07:21:14.829Z,76.02
2018-12-17T07:21:49.386Z,75.50
2018-12-17T07:22:24.030Z,69.42
2018-12-17T07:22:58.670Z,72.03
2018-12-17T07:23:33.371Z,73.97
2018-12-17T07:24:07.990Z,75.00
2018-12-17T07:24:42.470Z,74.32
2018-12-17T07:25:16.910Z,73.30
2018-12-17T07:25:52.216Z,79.82
2018-12-17T07:26:26.817Z,74.30
2018-12-17T07:27:01.495Z,75.37
2018-12-17T07:27:36.255Z,73.87
2018-12-17T07:28:10.815Z,73.62
2018-12-17T07:28:45.571Z,75.90